Morgenster — PHMY — position and weather

sailwx.info

Track history (hours):
 
Tides and Currents Weather Stations Pressure Air Temp Water Temp Dewpoint Dewpoint Depression Visibility Wind Speed Wind Dir Waves Ship Positions

Morgenster

Last reported at 2014-Aug-24 16:33 UTC. Time now 2014-Aug-27 23:22 UTC.
Position N 50°39' E 000°37'.

Length 46 m; draft 2.4 m.

Type: Sailing vessel. MMSI: 245136000.

Date/timePositionNaut miles runAvg speedWind from/ knotsBaromVisibWave heightAir tempDewpointWater temp
2014-Aug-24 16:33N 50°39' E 000°37'41 7.6
2014-Aug-24 11:15N 51°04' E 001°27'5 6.8
2014-Aug-24 10:33N 51°07' E 001°33'8 7.9
2014-Aug-24 09:33N 51°12' E 001°42'10 9.9
2014-Aug-24 08:33N 51°21' E 001°51'78 7.0
2014-Aug-23 21:22N 52°04' E 003°35'7 8.3
2014-Aug-23 20:31N 52°05' E 003°47'64 3.8
2014-Aug-23 03:33N 52°57' E 004°47'0 0.0
2014-Aug-23 02:33N 52°57' E 004°47'0 0.0
2014-Aug-23 01:33N 52°57' E 004°47'0 0.0
2014-Aug-23 00:30N 52°57' E 004°47'0 0.0
2014-Aug-22 23:33N 52°57' E 004°47'0 0.0
2014-Aug-22 22:30N 52°57' E 004°47'0 0.0
2014-Aug-22 21:30N 52°57' E 004°47'0 0.0
2014-Aug-22 20:33N 52°57' E 004°47'0 0.0
2014-Aug-22 19:30N 52°57' E 004°47'0 0.0
2014-Aug-22 18:33N 52°57' E 004°47'0 0.0
2014-Aug-22 17:33N 52°57' E 004°47'0 0.0
2014-Aug-22 16:33N 52°57' E 004°47'0 0.0
2014-Aug-22 15:33N 52°57' E 004°47'0 0.0
2014-Aug-22 14:33N 52°57' E 004°47'0 0.0
2014-Aug-22 13:33N 52°57' E 004°47'0 0.0
2014-Aug-22 12:33N 52°57' E 004°47'0 0.0
2014-Aug-22 11:33N 52°57' E 004°47'0 0.0
2014-Aug-22 10:33N 52°57' E 004°47'4 3.5
2014-Aug-22 09:34N 53°00' E 004°50'7 6.3
2014-Aug-22 08:28N 53°04' E 004°59'6 6.4
2014-Aug-22 07:34N 53°02' E 005°09'5 4.6
2014-Aug-22 06:34N 53°04' E 005°16'4 4.2
2014-Aug-22 05:34N 53°06' E 005°22'4 3.8
2014-Aug-22 04:34N 53°10' E 005°23'1 1.2
2014-Aug-22 03:34N 53°11' E 005°23'4 3.6
2014-Aug-22 02:33N 53°13' E 005°18'5 5.2
2014-Aug-22 01:34N 53°15' E 005°10'5 4.9
2014-Aug-22 00:34N 53°19' E 005°05'5 4.9
2014-Aug-21 23:33N 53°22' E 004°59'7 7.3
2014-Aug-21 22:33N 53°29' E 004°60'5 4.7
2014-Aug-21 21:30N 53°34' E 005°04'6 5.5
2014-Aug-21 20:27N 53°36' E 005°13'5 5.6
2014-Aug-21 19:32N 53°38' E 005°21'5 5.4
2014-Aug-21 18:33N 53°40' E 005°30'5 5.3
2014-Aug-21 17:33N 53°41' E 005°38'5 5.0
2014-Aug-21 16:34N 53°42' E 005°46'5 5.0
2014-Aug-21 15:31N 53°44' E 005°55'58 6.5
2014-Aug-21 06:30N 53°60' E 007°30'6 6.2
2014-Aug-21 05:33N 54°01' E 007°39'6 5.8
2014-Aug-21 04:33N 54°02' E 007°49'5 5.4
2014-Aug-21 03:33N 54°02' E 007°58'6 5.7
2014-Aug-21 02:34N 54°01' E 008°08'13 6.5
2014-Aug-21 00:33N 53°59' E 008°30'9 9.4
2014-Aug-20 23:34N 53°53' E 008°42'9 8.9
2014-Aug-20 22:33N 53°51' E 008°57'7 7.4
2014-Aug-20 21:34N 53°54' E 009°09'4 4.5
2014-Aug-20 20:33N 53°57' E 009°14'92 4.4
2014-Aug-19 23:33N 54°29' E 011°42'5 5.1
2014-Aug-19 22:33N 54°28' E 011°50'4 3.9
2014-Aug-19 21:33N 54°28' E 011°57'5 5.1
2014-Aug-19 20:33N 54°32' E 012°02'39 4.9
2014-Aug-19 12:31N 54°45' E 013°06'6 6.1
2014-Aug-19 11:33N 54°43' E 013°15'6 5.7
2014-Aug-19 10:33N 54°42' E 013°25'7 7.4
2014-Aug-19 09:34N 54°37' E 013°35'6 6.2
2014-Aug-19 08:31N 54°32' E 013°41'2 2.3
2014-Aug-19 07:32N 54°31' E 013°38'0 0.0
2014-Aug-19 06:32N 54°31' E 013°38'0 0.0
2014-Aug-19 05:32N 54°31' E 013°38'0 0.0
2014-Aug-19 04:32N 54°31' E 013°38'0 0.0
2014-Aug-19 03:32N 54°31' E 013°38'0 0.0
2014-Aug-19 02:32N 54°31' E 013°38'0 0.0
2014-Aug-19 01:32N 54°31' E 013°38'0 0.0
2014-Aug-19 00:32N 54°31' E 013°38'0 0.0
2014-Aug-18 23:32N 54°31' E 013°38'0 0.0
2014-Aug-18 22:32N 54°31' E 013°38'0 0.0
2014-Aug-18 21:32N 54°31' E 013°38'0 0.0
2014-Aug-18 20:26N 54°31' E 013°38'0 0.0
2014-Aug-18 19:32N 54°31' E 013°38'0 0.0
2014-Aug-18 18:32N 54°31' E 013°38'0 0.0
2014-Aug-18 17:26N 54°31' E 013°38'0 0.0
2014-Aug-18 16:32N 54°31' E 013°38'0 0.0
2014-Aug-18 15:32N 54°31' E 013°38'0 0.0
2014-Aug-18 14:29N 54°31' E 013°38'0 0.3
2014-Aug-18 13:33N 54°30' E 013°38'6 6.2
2014-Aug-18 12:33N 54°25' E 013°43'8 8.2
2014-Aug-18 11:33N 54°18' E 013°51'7 7.5
2014-Aug-18 10:33N 54°12' E 013°58'8 8.4
2014-Aug-18 09:33N 54°04' E 014°04'8 8.2
2014-Aug-18 08:33N 53°58' E 014°14'4 3.8
2014-Aug-18 07:33N 53°55' E 014°17'0 0.0
2014-Aug-18 06:33N 53°55' E 014°17'0 0.0
2014-Aug-18 05:33N 53°55' E 014°17'1 0.5
2014-Aug-18 04:32N 53°54' E 014°16'0 0.0
2014-Aug-18 03:32N 53°54' E 014°16'0 0.0
2014-Aug-18 02:32N 53°54' E 014°16'0 0.0
2014-Aug-18 01:32N 53°54' E 014°16'0 0.0
2014-Aug-18 00:29N 53°54' E 014°16'0 0.0
2014-Aug-17 18:32N 53°54' E 014°16'0 0.0
2014-Aug-17 17:34N 53°54' E 014°16'3 3.1
2014-Aug-17 16:34N 53°58' E 014°16'3 3.1
2014-Aug-17 15:34N 53°54' E 014°16'0 0.0
2014-Aug-17 14:34N 53°54' E 014°16'2 2.5
2014-Aug-17 13:34N 53°57' E 014°15'2 2.5
2014-Aug-17 12:33N 53°54' E 014°16'0 0.1
2014-Aug-17 11:34N 53°54' E 014°16'3 3.4
2014-Aug-17 10:34N 53°57' E 014°13'3 3.3
2014-Aug-17 09:33N 53°54' E 014°16'0 0.0
2014-Aug-17 08:33N 53°54' E 014°16'0 0.0
2014-Aug-17 07:33N 53°54' E 014°16'0 0.0
2014-Aug-17 06:33N 53°54' E 014°16'0 0.0
2014-Aug-17 05:33N 53°54' E 014°16'0 0.0
2014-Aug-17 04:33N 53°54' E 014°16'0 0.0
2014-Aug-17 03:33N 53°54' E 014°16'0 0.0
2014-Aug-17 02:33N 53°54' E 014°16'0 0.0
2014-Aug-17 01:33N 53°54' E 014°16'0 0.0
2014-Aug-17 00:33N 53°54' E 014°16'0 0.0
2014-Aug-16 23:33N 53°54' E 014°16'0 0.0
2014-Aug-16 22:33N 53°54' E 014°16'0 0.0
2014-Aug-16 21:33N 53°54' E 014°16'0 0.0
2014-Aug-16 20:33N 53°54' E 014°16'0 0.0
2014-Aug-16 19:33N 53°54' E 014°16'1 1.0
2014-Aug-16 18:33N 53°55' E 014°17'0 0.1
2014-Aug-16 17:33N 53°55' E 014°17'1 1.1
2014-Aug-16 16:33N 53°54' E 014°16'0 0.0
2014-Aug-16 15:33N 53°54' E 014°16'0 0.0
2014-Aug-16 14:33N 53°54' E 014°16'2 2.4
2014-Aug-16 13:33N 53°56' E 014°14'2 2.4
2014-Aug-16 12:33N 53°54' E 014°16'0 0.0
2014-Aug-16 11:33N 53°54' E 014°16'3 3.3
2014-Aug-16 10:34N 53°57' E 014°18'3 3.2
2014-Aug-16 09:32N 53°54' E 014°16'0 0.0
2014-Aug-16 08:32N 53°54' E 014°16'0 0.0
2014-Aug-16 07:32N 53°54' E 014°16'0 0.0
2014-Aug-16 06:32N 53°54' E 014°16'0 0.0
2014-Aug-16 05:32N 53°54' E 014°16'0 0.0
2014-Aug-16 04:32N 53°54' E 014°16'0 0.0
2014-Aug-16 03:32N 53°54' E 014°16'0 0.0
2014-Aug-16 02:32N 53°54' E 014°16'0 0.0
2014-Aug-16 01:32N 53°54' E 014°16'0 0.0
2014-Aug-16 00:32N 53°54' E 014°16'0 0.0
2014-Aug-15 23:32N 53°54' E 014°16'0 0.0
2014-Aug-15 22:32N 53°54' E 014°16'0 0.0
2014-Aug-15 21:32N 53°54' E 014°16'0 0.0
2014-Aug-15 20:32N 53°54' E 014°16'0 0.0
2014-Aug-15 19:32N 53°54' E 014°16'0 0.0
2014-Aug-15 18:32N 53°54' E 014°16'0 0.1
2014-Aug-15 17:34N 53°54' E 014°16'2 2.3
2014-Aug-15 16:33N 53°57' E 014°15'2 2.3
2014-Aug-15 15:33N 53°54' E 014°16'0 0.1
2014-Aug-15 14:33N 53°54' E 014°16'3 3.4
2014-Aug-15 13:33N 53°58' E 014°15'3 3.4
2014-Aug-15 12:34N 53°54' E 014°16'0 0.0
2014-Aug-15 11:33N 53°54' E 014°16'4 3.9
2014-Aug-15 10:34N 53°58' E 014°15'4 3.9
2014-Aug-15 09:34N 53°54' E 014°16'0 0.2
2014-Aug-15 08:32N 53°54' E 014°16'0 0.0
2014-Aug-15 07:32N 53°54' E 014°16'0 0.0
2014-Aug-15 06:32N 53°54' E 014°16'0 0.0
2014-Aug-15 05:32N 53°54' E 014°16'0 0.0
2014-Aug-15 04:32N 53°54' E 014°16'0 0.0
2014-Aug-15 03:32N 53°54' E 014°16'0 0.0
2014-Aug-15 02:32N 53°54' E 014°16'0 0.0
2014-Aug-15 01:32N 53°54' E 014°16'0 0.0
2014-Aug-15 00:32N 53°54' E 014°16'0 0.0
2014-Aug-14 23:32N 53°54' E 014°16'0 0.0
2014-Aug-14 22:32N 53°54' E 014°16'0 0.0
2014-Aug-14 21:32N 53°54' E 014°16'0 0.0
2014-Aug-14 20:32N 53°54' E 014°16'0 0.0
2014-Aug-14 19:32N 53°54' E 014°16'0 0.0
2014-Aug-14 18:32N 53°54' E 014°16'0 0.0
2014-Aug-14 17:32N 53°54' E 014°16'  
Track history (hours):
 
Tides and Currents Weather Stations Pressure Air Temp Water Temp Dewpoint Dewpoint Depression Visibility Wind Speed Wind Dir Waves Ship Positions

Morgenster

Last reported at 2014-Aug-24 16:33 UTC. Time now 2014-Aug-27 23:22 UTC.
Position N 50°39' E 000°37'.

Length 46 m; draft 2.4 m.

Type: Sailing vessel. MMSI: 245136000.

Date/timePositionNaut miles runAvg speedWind from/ knotsBaromVisibWave heightAir tempDewpointWater temp
2014-Aug-24 16:33N 50°39' E 000°37'41 7.6
2014-Aug-24 11:15N 51°04' E 001°27'5 6.8
2014-Aug-24 10:33N 51°07' E 001°33'8 7.9
2014-Aug-24 09:33N 51°12' E 001°42'10 9.9
2014-Aug-24 08:33N 51°21' E 001°51'78 7.0
2014-Aug-23 21:22N 52°04' E 003°35'7 8.3
2014-Aug-23 20:31N 52°05' E 003°47'64 3.8
2014-Aug-23 03:33N 52°57' E 004°47'0 0.0
2014-Aug-23 02:33N 52°57' E 004°47'0 0.0
2014-Aug-23 01:33N 52°57' E 004°47'0 0.0
2014-Aug-23 00:30N 52°57' E 004°47'0 0.0
2014-Aug-22 23:33N 52°57' E 004°47'0 0.0
2014-Aug-22 22:30N 52°57' E 004°47'0 0.0
2014-Aug-22 21:30N 52°57' E 004°47'0 0.0
2014-Aug-22 20:33N 52°57' E 004°47'0 0.0
2014-Aug-22 19:30N 52°57' E 004°47'0 0.0
2014-Aug-22 18:33N 52°57' E 004°47'0 0.0
2014-Aug-22 17:33N 52°57' E 004°47'0 0.0
2014-Aug-22 16:33N 52°57' E 004°47'0 0.0
2014-Aug-22 15:33N 52°57' E 004°47'0 0.0
2014-Aug-22 14:33N 52°57' E 004°47'0 0.0
2014-Aug-22 13:33N 52°57' E 004°47'0 0.0
2014-Aug-22 12:33N 52°57' E 004°47'0 0.0
2014-Aug-22 11:33N 52°57' E 004°47'0 0.0
2014-Aug-22 10:33N 52°57' E 004°47'4 3.5
2014-Aug-22 09:34N 53°00' E 004°50'7 6.3
2014-Aug-22 08:28N 53°04' E 004°59'6 6.4
2014-Aug-22 07:34N 53°02' E 005°09'5 4.6
2014-Aug-22 06:34N 53°04' E 005°16'4 4.2
2014-Aug-22 05:34N 53°06' E 005°22'4 3.8
2014-Aug-22 04:34N 53°10' E 005°23'1 1.2
2014-Aug-22 03:34N 53°11' E 005°23'4 3.6
2014-Aug-22 02:33N 53°13' E 005°18'5 5.2
2014-Aug-22 01:34N 53°15' E 005°10'5 4.9
2014-Aug-22 00:34N 53°19' E 005°05'5 4.9
2014-Aug-21 23:33N 53°22' E 004°59'7 7.3
2014-Aug-21 22:33N 53°29' E 004°60'5 4.7
2014-Aug-21 21:30N 53°34' E 005°04'6 5.5
2014-Aug-21 20:27N 53°36' E 005°13'5 5.6
2014-Aug-21 19:32N 53°38' E 005°21'5 5.4
2014-Aug-21 18:33N 53°40' E 005°30'5 5.3
2014-Aug-21 17:33N 53°41' E 005°38'5 5.0
2014-Aug-21 16:34N 53°42' E 005°46'5 5.0
2014-Aug-21 15:31N 53°44' E 005°55'58 6.5
2014-Aug-21 06:30N 53°60' E 007°30'6 6.2
2014-Aug-21 05:33N 54°01' E 007°39'6 5.8
2014-Aug-21 04:33N 54°02' E 007°49'5 5.4
2014-Aug-21 03:33N 54°02' E 007°58'6 5.7
2014-Aug-21 02:34N 54°01' E 008°08'13 6.5
2014-Aug-21 00:33N 53°59' E 008°30'9 9.4
2014-Aug-20 23:34N 53°53' E 008°42'9 8.9
2014-Aug-20 22:33N 53°51' E 008°57'7 7.4
2014-Aug-20 21:34N 53°54' E 009°09'4 4.5
2014-Aug-20 20:33N 53°57' E 009°14'92 4.4
2014-Aug-19 23:33N 54°29' E 011°42'5 5.1
2014-Aug-19 22:33N 54°28' E 011°50'4 3.9
2014-Aug-19 21:33N 54°28' E 011°57'5 5.1
2014-Aug-19 20:33N 54°32' E 012°02'39 4.9
2014-Aug-19 12:31N 54°45' E 013°06'6 6.1
2014-Aug-19 11:33N 54°43' E 013°15'6 5.7
2014-Aug-19 10:33N 54°42' E 013°25'7 7.4
2014-Aug-19 09:34N 54°37' E 013°35'6 6.2
2014-Aug-19 08:31N 54°32' E 013°41'2 2.3
2014-Aug-19 07:32N 54°31' E 013°38'0 0.0
2014-Aug-19 06:32N 54°31' E 013°38'0 0.0
2014-Aug-19 05:32N 54°31' E 013°38'0 0.0
2014-Aug-19 04:32N 54°31' E 013°38'0 0.0
2014-Aug-19 03:32N 54°31' E 013°38'0 0.0
2014-Aug-19 02:32N 54°31' E 013°38'0 0.0
2014-Aug-19 01:32N 54°31' E 013°38'0 0.0
2014-Aug-19 00:32N 54°31' E 013°38'0 0.0
2014-Aug-18 23:32N 54°31' E 013°38'0 0.0
2014-Aug-18 22:32N 54°31' E 013°38'0 0.0
2014-Aug-18 21:32N 54°31' E 013°38'0 0.0
2014-Aug-18 20:26N 54°31' E 013°38'0 0.0
2014-Aug-18 19:32N 54°31' E 013°38'0 0.0
2014-Aug-18 18:32N 54°31' E 013°38'0 0.0
2014-Aug-18 17:26N 54°31' E 013°38'0 0.0
2014-Aug-18 16:32N 54°31' E 013°38'0 0.0
2014-Aug-18 15:32N 54°31' E 013°38'0 0.0
2014-Aug-18 14:29N 54°31' E 013°38'0 0.3
2014-Aug-18 13:33N 54°30' E 013°38'6 6.2
2014-Aug-18 12:33N 54°25' E 013°43'8 8.2
2014-Aug-18 11:33N 54°18' E 013°51'7 7.5
2014-Aug-18 10:33N 54°12' E 013°58'8 8.4
2014-Aug-18 09:33N 54°04' E 014°04'8 8.2
2014-Aug-18 08:33N 53°58' E 014°14'4 3.8
2014-Aug-18 07:33N 53°55' E 014°17'0 0.0
2014-Aug-18 06:33N 53°55' E 014°17'0 0.0
2014-Aug-18 05:33N 53°55' E 014°17'1 0.5
2014-Aug-18 04:32N 53°54' E 014°16'0 0.0
2014-Aug-18 03:32N 53°54' E 014°16'0 0.0
2014-Aug-18 02:32N 53°54' E 014°16'0 0.0
2014-Aug-18 01:32N 53°54' E 014°16'0 0.0
2014-Aug-18 00:29N 53°54' E 014°16'0 0.0
2014-Aug-17 18:32N 53°54' E 014°16'0 0.0
2014-Aug-17 17:34N 53°54' E 014°16'3 3.1
2014-Aug-17 16:34N 53°58' E 014°16'3 3.1
2014-Aug-17 15:34N 53°54' E 014°16'0 0.0
2014-Aug-17 14:34N 53°54' E 014°16'2 2.5
2014-Aug-17 13:34N 53°57' E 014°15'2 2.5
2014-Aug-17 12:33N 53°54' E 014°16'0 0.1
2014-Aug-17 11:34N 53°54' E 014°16'3 3.4
2014-Aug-17 10:34N 53°57' E 014°13'3 3.3
2014-Aug-17 09:33N 53°54' E 014°16'0 0.0
2014-Aug-17 08:33N 53°54' E 014°16'0 0.0
2014-Aug-17 07:33N 53°54' E 014°16'0 0.0
2014-Aug-17 06:33N 53°54' E 014°16'0 0.0
2014-Aug-17 05:33N 53°54' E 014°16'0 0.0
2014-Aug-17 04:33N 53°54' E 014°16'0 0.0
2014-Aug-17 03:33N 53°54' E 014°16'0 0.0
2014-Aug-17 02:33N 53°54' E 014°16'0 0.0
2014-Aug-17 01:33N 53°54' E 014°16'0 0.0
2014-Aug-17 00:33N 53°54' E 014°16'0 0.0
2014-Aug-16 23:33N 53°54' E 014°16'0 0.0
2014-Aug-16 22:33N 53°54' E 014°16'0 0.0
2014-Aug-16 21:33N 53°54' E 014°16'0 0.0
2014-Aug-16 20:33N 53°54' E 014°16'0 0.0
2014-Aug-16 19:33N 53°54' E 014°16'1 1.0
2014-Aug-16 18:33N 53°55' E 014°17'0 0.1
2014-Aug-16 17:33N 53°55' E 014°17'1 1.1
2014-Aug-16 16:33N 53°54' E 014°16'0 0.0
2014-Aug-16 15:33N 53°54' E 014°16'0 0.0
2014-Aug-16 14:33N 53°54' E 014°16'2 2.4
2014-Aug-16 13:33N 53°56' E 014°14'2 2.4
2014-Aug-16 12:33N 53°54' E 014°16'0 0.0
2014-Aug-16 11:33N 53°54' E 014°16'3 3.3
2014-Aug-16 10:34N 53°57' E 014°18'3 3.2
2014-Aug-16 09:32N 53°54' E 014°16'0 0.0
2014-Aug-16 08:32N 53°54' E 014°16'0 0.0
2014-Aug-16 07:32N 53°54' E 014°16'0 0.0
2014-Aug-16 06:32N 53°54' E 014°16'0 0.0
2014-Aug-16 05:32N 53°54' E 014°16'0 0.0
2014-Aug-16 04:32N 53°54' E 014°16'0 0.0
2014-Aug-16 03:32N 53°54' E 014°16'0 0.0
2014-Aug-16 02:32N 53°54' E 014°16'0 0.0
2014-Aug-16 01:32N 53°54' E 014°16'0 0.0
2014-Aug-16 00:32N 53°54' E 014°16'0 0.0
2014-Aug-15 23:32N 53°54' E 014°16'0 0.0
2014-Aug-15 22:32N 53°54' E 014°16'0 0.0
2014-Aug-15 21:32N 53°54' E 014°16'0 0.0
2014-Aug-15 20:32N 53°54' E 014°16'0 0.0
2014-Aug-15 19:32N 53°54' E 014°16'0 0.0
2014-Aug-15 18:32N 53°54' E 014°16'0 0.1
2014-Aug-15 17:34N 53°54' E 014°16'2 2.3
2014-Aug-15 16:33N 53°57' E 014°15'2 2.3
2014-Aug-15 15:33N 53°54' E 014°16'0 0.1
2014-Aug-15 14:33N 53°54' E 014°16'3 3.4
2014-Aug-15 13:33N 53°58' E 014°15'3 3.4
2014-Aug-15 12:34N 53°54' E 014°16'0 0.0
2014-Aug-15 11:33N 53°54' E 014°16'4 3.9
2014-Aug-15 10:34N 53°58' E 014°15'4 3.9
2014-Aug-15 09:34N 53°54' E 014°16'0 0.2
2014-Aug-15 08:32N 53°54' E 014°16'0 0.0
2014-Aug-15 07:32N 53°54' E 014°16'0 0.0
2014-Aug-15 06:32N 53°54' E 014°16'0 0.0
2014-Aug-15 05:32N 53°54' E 014°16'0 0.0
2014-Aug-15 04:32N 53°54' E 014°16'0 0.0
2014-Aug-15 03:32N 53°54' E 014°16'0 0.0
2014-Aug-15 02:32N 53°54' E 014°16'0 0.0
2014-Aug-15 01:32N 53°54' E 014°16'0 0.0
2014-Aug-15 00:32N 53°54' E 014°16'0 0.0
2014-Aug-14 23:32N 53°54' E 014°16'0 0.0
2014-Aug-14 22:32N 53°54' E 014°16'0 0.0
2014-Aug-14 21:32N 53°54' E 014°16'0 0.0
2014-Aug-14 20:32N 53°54' E 014°16'0 0.0
2014-Aug-14 19:32N 53°54' E 014°16'0 0.0
2014-Aug-14 18:32N 53°54' E 014°16'0 0.0
2014-Aug-14 17:32N 53°54' E 014°16'  

Dump ship's entire track history